createdAt,value
2022-08-26T00:01:28.933Z,0.70
2022-08-26T00:06:47.206Z,0.65
2022-08-26T00:12:02.883Z,0.70
2022-08-26T00:17:16.518Z,0.60
2022-08-26T00:22:33.894Z,0.60
2022-08-26T00:27:48.665Z,0.95
2022-08-26T00:33:03.900Z,0.80
2022-08-26T00:38:22.863Z,1.00
2022-08-26T00:43:47.226Z,1.02
2022-08-26T00:49:12.189Z,1.02
2022-08-26T00:54:33.065Z,1.50
2022-08-26T00:59:53.321Z,0.80
2022-08-26T01:05:08.414Z,1.00
2022-08-26T01:10:29.216Z,0.90
2022-08-26T01:15:45.557Z,0.82
2022-08-26T01:21:07.519Z,0.70
2022-08-26T01:26:26.673Z,0.90
2022-08-26T01:31:40.491Z,0.93
2022-08-26T01:36:51.347Z,1.00
2022-08-26T01:42:05.810Z,1.13
2022-08-26T01:47:22.217Z,1.42
2022-08-26T01:52:34.447Z,1.13
2022-08-26T01:57:56.256Z,0.70
2022-08-26T02:03:23.650Z,1.08
2022-08-26T02:08:39.128Z,0.85
2022-08-26T02:13:51.960Z,0.75
2022-08-26T02:19:02.547Z,0.98
2022-08-26T02:24:16.821Z,0.80
2022-08-26T02:29:31.803Z,0.88
2022-08-26T02:34:40.618Z,1.00
2022-08-26T02:39:50.473Z,1.58
2022-08-26T02:45:03.558Z,1.50
2022-08-26T02:50:13.282Z,1.30
2022-08-26T02:55:21.243Z,1.65
2022-08-26T03:00:35.007Z,1.63
2022-08-26T03:05:43.350Z,1.20
2022-08-26T03:10:51.553Z,0.95
2022-08-26T03:16:02.221Z,0.85
2022-08-26T03:21:13.572Z,0.77
2022-08-26T03:26:25.736Z,0.93
2022-08-26T03:31:42.690Z,0.70
2022-08-26T03:36:55.880Z,0.60
2022-08-26T03:42:07.727Z,0.93
2022-08-26T03:47:20.208Z,0.73
2022-08-26T03:52:27.745Z,0.60
2022-08-26T03:58:04.837Z,0.55
2022-08-26T04:03:18.648Z,0.98
2022-08-26T04:08:26.834Z,0.80
2022-08-26T04:13:35.542Z,0.55
2022-08-26T04:18:47.880Z,0.85
2022-08-26T04:23:59.579Z,0.80
2022-08-26T04:29:15.403Z,1.40
2022-08-26T04:34:25.303Z,0.90
2022-08-26T04:39:35.745Z,1.38
2022-08-26T04:44:42.961Z,1.17
2022-08-26T04:49:53.958Z,0.73
2022-08-26T04:55:02.906Z,0.80
2022-08-26T05:00:17.942Z,1.38
2022-08-26T05:05:28.478Z,0.90
2022-08-26T05:10:36.966Z,1.00
2022-08-26T05:15:49.612Z,0.80
2022-08-26T05:20:59.579Z,1.50
2022-08-26T05:26:07.633Z,1.10
2022-08-26T05:31:20.950Z,0.60
2022-08-26T05:41:51.837Z,0.70
2022-08-26T05:47:03.331Z,2.17
2022-08-26T05:52:20.500Z,1.02
2022-08-26T05:57:40.379Z,1.02
2022-08-26T06:02:55.346Z,1.98
2022-08-26T06:08:19.886Z,0.80
2022-08-26T06:13:33.784Z,1.60
2022-08-26T06:18:54.391Z,0.95
2022-08-26T06:24:26.856Z,0.80
2022-08-26T06:29:40.501Z,0.70
2022-08-26T06:34:51.224Z,1.33
2022-08-26T06:40:08.689Z,1.42
2022-08-26T06:45:21.975Z,2.35
2022-08-26T06:50:36.043Z,1.55
2022-08-26T06:55:51.737Z,1.80
2022-08-26T07:01:03.762Z,1.55
2022-08-26T07:06:25.584Z,1.02
2022-08-26T07:11:41.963Z,1.00
2022-08-26T07:16:56.533Z,1.38
2022-08-26T07:22:12.792Z,1.52
2022-08-26T07:27:27.206Z,1.55
2022-08-26T07:32:39.329Z,2.10
2022-08-26T07:37:52.797Z,2.17
2022-08-26T07:43:07.985Z,1.48
2022-08-26T07:48:21.534Z,0.98
2022-08-26T07:53:35.447Z,1.92
2022-08-26T07:58:52.090Z,1.05
2022-08-26T08:04:05.598Z,1.20
2022-08-26T08:09:20.033Z,1.42
2022-08-26T08:14:40.022Z,1.83
2022-08-26T08:19:50.777Z,1.65
2022-08-26T08:25:08.135Z,1.27
2022-08-26T08:30:30.942Z,1.55
2022-08-26T08:35:46.840Z,1.60
2022-08-26T08:40:54.075Z,1.80
2022-08-26T08:46:08.388Z,1.77
2022-08-26T08:51:24.854Z,1.67
2022-08-26T08:56:36.394Z,1.95
2022-08-26T09:02:07.644Z,2.50
2022-08-26T09:07:24.331Z,1.70
2022-08-26T09:12:37.460Z,2.40
2022-08-26T09:18:02.644Z,2.40
2022-08-26T09:23:16.296Z,2.58
2022-08-26T09:33:45.287Z,2.60
2022-08-26T09:38:58.143Z,2.80
2022-08-26T09:44:25.508Z,2.73
2022-08-26T09:49:43.518Z,3.00
2022-08-26T09:55:08.093Z,3.10
2022-08-26T10:00:38.628Z,2.60
2022-08-26T10:06:04.926Z,2.20
2022-08-26T10:11:25.503Z,2.20
2022-08-26T10:16:45.584Z,1.60
2022-08-26T10:27:34.992Z,1.50
2022-08-26T10:32:49.381Z,1.42
2022-08-26T10:38:02.697Z,1.30
2022-08-26T10:43:19.498Z,1.23
2022-08-26T10:48:35.518Z,1.42
2022-08-26T10:53:57.957Z,1.00
2022-08-26T10:59:16.173Z,1.00
2022-08-26T11:04:43.410Z,0.93
2022-08-26T11:10:02.998Z,0.90
2022-08-26T11:15:19.873Z,1.80
2022-08-26T11:20:42.967Z,1.02
2022-08-26T11:26:35.639Z,2.13
2022-08-26T11:32:03.999Z,1.77
2022-08-26T11:37:23.566Z,1.60
2022-08-26T11:42:43.759Z,1.90
2022-08-26T11:48:01.471Z,1.60
2022-08-26T11:53:14.326Z,1.70
2022-08-26T12:03:49.532Z,1.00
2022-08-26T12:09:07.430Z,1.10
2022-08-26T12:14:35.274Z,0.73
2022-08-26T12:19:58.243Z,0.85
2022-08-26T12:25:16.011Z,0.90
2022-08-26T12:30:32.537Z,0.50
2022-08-26T12:35:54.378Z,0.50
2022-08-26T12:41:11.847Z,0.52
2022-08-26T12:46:32.039Z,0.60
2022-08-26T12:51:50.327Z,0.60
2022-08-26T12:57:05.506Z,0.63
2022-08-26T13:02:21.478Z,0.85
2022-08-26T13:07:34.236Z,1.13
2022-08-26T13:12:43.612Z,0.47
2022-08-26T13:17:55.471Z,0.75
2022-08-26T13:23:10.891Z,0.68
2022-08-26T13:28:21.344Z,0.85
2022-08-26T13:33:34.020Z,0.50
2022-08-26T13:38:48.306Z,0.88
2022-08-26T13:44:04.788Z,0.63
2022-08-26T13:49:16.803Z,0.50
2022-08-26T13:54:32.566Z,0.40
2022-08-26T13:59:43.729Z,0.47
2022-08-26T14:04:56.154Z,0.20
2022-08-26T14:10:12.591Z,0.47
2022-08-26T14:15:25.739Z,0.30
2022-08-26T14:20:42.376Z,0.20
2022-08-26T14:25:59.278Z,0.20
2022-08-26T14:31:10.903Z,0.50
2022-08-26T14:36:36.247Z,0.10
2022-08-26T14:41:55.889Z,0.28
2022-08-26T14:47:09.953Z,0.20
2022-08-26T14:52:21.990Z,0.38
2022-08-26T14:57:38.539Z,0.33
2022-08-26T15:02:51.419Z,0.30
2022-08-26T15:08:07.736Z,0.30
2022-08-26T15:13:25.017Z,0.30
2022-08-26T15:18:40.602Z,0.20
2022-08-26T15:23:55.118Z,0.60
2022-08-26T15:29:14.330Z,0.38
2022-08-26T15:34:27.422Z,0.50
2022-08-26T15:39:41.573Z,0.43
2022-08-26T15:44:59.192Z,0.30
2022-08-26T15:50:17.880Z,1.05
2022-08-26T15:55:35.373Z,0.70
2022-08-26T16:00:51.231Z,0.35
2022-08-26T16:06:04.907Z,0.70
2022-08-26T16:11:21.292Z,0.32
2022-08-26T16:16:39.328Z,0.60
2022-08-26T16:27:23.966Z,0.40
2022-08-26T16:32:44.543Z,0.70
2022-08-26T16:37:58.634Z,0.60
2022-08-26T16:43:13.480Z,0.75
2022-08-26T16:48:31.803Z,0.40
2022-08-26T16:53:50.297Z,0.63
2022-08-26T16:59:05.803Z,0.50
2022-08-26T17:04:24.948Z,0.35
2022-08-26T17:09:40.406Z,0.40
2022-08-26T17:14:56.143Z,1.50
2022-08-26T17:20:18.511Z,0.32
2022-08-26T17:25:35.885Z,0.50
2022-08-26T17:30:52.234Z,0.20
2022-08-26T17:36:12.635Z,0.20
2022-08-26T17:41:28.164Z,0.30
2022-08-26T17:46:41.902Z,0.20
2022-08-26T17:57:12.870Z,0.20
2022-08-26T18:02:33.806Z,0.40
2022-08-26T18:07:53.958Z,0.20
2022-08-26T18:13:09.329Z,0.30
2022-08-26T18:18:26.260Z,0.28
2022-08-26T18:23:45.889Z,0.20
2022-08-26T18:28:59.956Z,0.20
2022-08-26T18:34:16.356Z,0.30
2022-08-26T18:39:35.107Z,0.20
2022-08-26T18:44:51.962Z,0.20
2022-08-26T18:50:10.544Z,0.38
2022-08-26T18:55:29.057Z,0.30
2022-08-26T19:00:46.690Z,0.20
2022-08-26T19:06:00.747Z,0.20
2022-08-26T19:11:31.985Z,0.25
2022-08-26T19:16:52.358Z,0.15
2022-08-26T19:22:07.627Z,0.10
2022-08-26T19:27:25.171Z,0.00
2022-08-26T19:32:40.320Z,0.15
2022-08-26T19:37:57.041Z,0.10
2022-08-26T19:43:15.581Z,0.30
2022-08-26T19:48:33.820Z,0.22
2022-08-26T19:53:46.944Z,0.10
2022-08-26T19:59:05.766Z,0.15
2022-08-26T20:04:21.670Z,0.13
2022-08-26T20:09:37.492Z,0.10
2022-08-26T20:14:56.674Z,0.13
2022-08-26T20:20:33.255Z,0.10
2022-08-26T20:25:49.402Z,0.20
2022-08-26T20:31:07.583Z,0.15
2022-08-26T20:36:25.942Z,0.22
2022-08-26T20:41:40.997Z,0.30
2022-08-26T20:46:59.934Z,0.20
2022-08-26T20:52:15.012Z,0.20
2022-08-26T20:57:30.727Z,0.20
2022-08-26T21:02:49.320Z,0.30
2022-08-26T21:08:07.772Z,0.20
2022-08-26T21:13:21.352Z,0.10
2022-08-26T21:18:39.946Z,0.20
2022-08-26T21:23:54.986Z,0.20
2022-08-26T21:29:12.834Z,0.28
2022-08-26T21:34:31.534Z,0.28
2022-08-26T21:39:47.663Z,0.30
2022-08-26T21:45:02.839Z,0.20
2022-08-26T21:50:21.751Z,0.35
2022-08-26T21:55:37.830Z,0.13
2022-08-26T22:01:02.087Z,0.20
2022-08-26T22:06:21.031Z,0.20
2022-08-26T22:11:38.561Z,0.20
2022-08-26T22:16:53.502Z,0.20
2022-08-26T22:22:12.744Z,0.30
2022-08-26T22:27:40.409Z,0.15
2022-08-26T22:32:58.079Z,0.20
2022-08-26T22:38:16.749Z,0.20
2022-08-26T22:43:31.916Z,0.20
2022-08-26T22:48:53.993Z,0.30
2022-08-26T22:54:12.862Z,0.80
2022-08-26T22:59:28.364Z,0.40
2022-08-26T23:04:42.962Z,0.35
2022-08-26T23:10:01.679Z,0.38
2022-08-26T23:15:19.367Z,0.40
2022-08-26T23:20:34.963Z,0.35
2022-08-26T23:25:54.233Z,0.38
2022-08-26T23:31:10.722Z,0.40
2022-08-26T23:36:26.583Z,0.50
2022-08-26T23:41:47.913Z,0.38
2022-08-26T23:47:02.684Z,0.30
2022-08-26T23:52:36.733Z,0.28
2022-08-26T23:57:54.500Z,0.30
